Time;durP1;ratioP1;P1;durP2;ratioP2;P2;SDS_P1;SDS_P2;PMS_P1;PMS_P2;Temp;Humidity;BMP_temperature;BMP_pressure;BME280_temperature;BME280_humidity;BME280_pressure;Samples;Min_cycle;Max_cycle;Signal;HPM_P1;HPM_P2
2022/06/10 00:00:21;;;;;;;;;1.67;1.00;;;;;19.64;100.00;101636.41;5013891;28;46207;-78
2022/06/10 00:02:47;;;;;;;;;3.00;3.00;;;;;19.73;100.00;101648.81;5025597;28;46307;-77
2022/06/10 00:05:16;;;;;;;;;2.00;2.00;;;;;19.73;100.00;101646.03;5018506;28;46555;-76
2022/06/10 00:07:42;;;;;;;;;2.67;2.00;;;;;19.70;100.00;101643.75;5029053;28;45591;-75
2022/06/10 00:10:19;;;;;;;;;3.67;3.33;;;;;19.60;100.00;101624.94;5029227;28;45411;-76
2022/06/10 00:12:46;;;;;;;;;3.33;2.67;;;;;19.73;100.00;101649.69;5032565;28;45820;-76
2022/06/10 00:15:12;;;;;;;;;4.00;4.00;;;;;19.75;100.00;101638.31;5043574;28;45843;-76
2022/06/10 00:17:41;;;;;;;;;4.00;3.00;;;;;19.75;100.00;101639.13;5028014;28;45446;-76
2022/06/10 00:20:09;;;;;;;;;3.33;3.00;;;;;19.74;100.00;101639.38;5022351;28;45509;-76
2022/06/10 00:22:35;;;;;;;;;3.00;3.00;;;;;19.72;100.00;101633.22;5025121;28;45510;-75
2022/06/10 00:25:04;;;;;;;;;2.33;1.33;;;;;19.74;100.00;101637.44;5030517;28;45470;-75
2022/06/10 00:27:30;;;;;;;;;2.00;2.00;;;;;19.55;100.00;101608.13;5032996;28;45497;-76
2022/06/10 00:29:55;;;;;;;;;4.00;3.00;;;;;19.56;100.00;101610.66;5027008;28;45588;-76
2022/06/10 00:32:21;;;;;;;;;2.00;2.00;;;;;19.74;100.00;101633.81;5028625;28;46996;-77
2022/06/10 00:34:46;;;;;;;;;4.00;4.00;;;;;19.76;100.00;101637.22;5021468;28;45382;-76
2022/06/10 00:37:12;;;;;;;;;4.33;3.33;;;;;19.75;100.00;101632.72;5034779;28;45595;-77
2022/06/10 00:39:37;;;;;;;;;3.00;3.00;;;;;19.75;100.00;101636.34;5015017;28;47017;-77
2022/06/10 00:42:05;;;;;;;;;4.67;3.00;;;;;19.79;100.00;101633.09;5031640;28;46142;-76
2022/06/10 00:44:36;;;;;;;;;3.00;3.00;;;;;19.80;100.00;101635.63;5033604;28;45773;-77
2022/06/10 00:47:09;;;;;;;;;3.00;3.00;;;;;19.70;100.00;101618.69;5043044;28;45372;-76
2022/06/10 00:49:34;;;;;;;;;3.67;2.00;;;;;19.71;100.00;101612.06;5045554;28;45997;-77
2022/06/10 00:51:59;;;;;;;;;5.67;3.33;;;;;19.73;100.00;101620.97;5048109;28;45675;-77
2022/06/10 00:54:33;;;;;;;;;3.33;3.33;;;;;19.79;100.00;101628.41;5029413;28;45797;-76
2022/06/10 00:57:06;;;;;;;;;6.00;3.00;;;;;19.55;100.00;101583.94;5040961;28;45387;-76
2022/06/10 00:59:38;;;;;;;;;3.33;3.33;;;;;19.60;100.00;101594.31;5005615;28;46317;-76
2022/06/10 01:02:10;;;;;;;;;2.33;2.33;;;;;19.81;100.00;101620.63;5031363;28;45893;-75
2022/06/10 01:04:40;;;;;;;;;7.67;3.67;;;;;19.80;100.00;101616.16;5048307;28;45744;-76
2022/06/10 01:07:07;;;;;;;;;2.67;2.00;;;;;19.78;100.00;101609.16;5031023;28;45384;-76
2022/06/10 01:09:33;;;;;;;;;2.00;2.00;;;;;19.81;100.00;101623.41;5034194;28;45761;-76
2022/06/10 01:12:17;;;;;;;;;3.00;3.00;;;;;19.79;100.00;101617.25;5040950;28;45486;-76
2022/06/10 01:15:01;;;;;;;;;3.00;3.00;;;;;19.78;100.00;101625.88;5032527;28;45464;-77
2022/06/10 01:17:29;;;;;;;;;5.00;3.00;;;;;19.77;100.00;101624.97;5017951;28;45521;-76
2022/06/10 01:20:14;;;;;;;;;1.33;1.33;;;;;19.76;100.00;101628.88;5032633;28;45936;-75
2022/06/10 01:22:59;;;;;;;;;6.67;3.67;;;;;19.68;100.00;101610.59;5033967;28;45410;-76
2022/06/10 01:25:33;;;;;;;;;5.00;4.00;;;;;19.76;100.00;101626.91;5036554;28;45316;-76
2022/06/10 01:28:28;;;;;;;;;4.67;3.33;;;;;19.76;100.00;101624.13;5008559;28;45462;-76
2022/06/10 01:31:04;;;;;;;;;6.00;2.67;;;;;19.76;100.00;101618.56;5024352;28;45815;-76
2022/06/10 01:33:49;;;;;;;;;3.67;2.00;;;;;19.71;100.00;101610.09;5035574;28;46446;-76
2022/06/10 01:36:21;;;;;;;;;2.00;2.00;;;;;19.74;100.00;101619.91;5027804;28;45524;-76
2022/06/10 01:39:03;;;;;;;;;4.00;2.67;;;;;19.73;100.00;101618.19;5013773;28;45535;-75
2022/06/10 01:41:50;;;;;;;;;3.00;2.00;;;;;19.73;100.00;101623.78;5018231;28;45809;-74
2022/06/10 01:44:36;;;;;;;;;1.00;1.00;;;;;19.75;100.00;101619.66;5016456;28;45880;-76
2022/06/10 01:47:16;;;;;;;;;5.67;3.00;;;;;19.77;100.00;101619.41;5027162;28;45468;-76
2022/06/10 01:49:46;;;;;;;;;2.00;2.00;;;;;19.78;100.00;101621.13;5029424;28;45656;-75
2022/06/10 01:52:23;;;;;;;;;2.67;2.67;;;;;19.77;100.00;101616.63;5027182;28;45897;-75
2022/06/10 01:55:04;;;;;;;;;5.00;2.00;;;;;19.79;100.00;101621.97;5030343;28;45455;-76
2022/06/10 01:57:39;;;;;;;;;2.00;2.00;;;;;19.75;100.00;101618.81;5047447;28;45452;-75
2022/06/10 02:00:17;;;;;;;;;2.33;2.33;;;;;19.80;100.00;101624.50;5018545;28;45697;-75
2022/06/10 02:03:05;;;;;;;;;2.67;2.67;;;;;19.79;100.00;101625.63;5062434;28;45429;-76
2022/06/10 02:05:42;;;;;;;;;2.00;2.00;;;;;19.81;100.00;101628.97;5029247;28;47909;-76
2022/06/10 02:08:14;;;;;;;;;4.00;3.00;;;;;19.80;100.00;101624.50;5052934;28;45884;-76
2022/06/10 02:10:59;;;;;;;;;2.33;2.00;;;;;19.80;100.00;101629.22;5052075;28;45763;-78
2022/06/10 02:13:31;;;;;;;;;4.00;3.00;;;;;19.80;100.00;101620.88;5054033;28;45669;-75
2022/06/10 02:16:00;;;;;;;;;3.67;2.00;;;;;19.79;100.00;101636.75;5053311;28;46869;-76
2022/06/10 02:18:46;;;;;;;;;3.67;2.33;;;;;19.78;100.00;101632.28;5053083;28;45391;-76
2022/06/10 02:21:27;;;;;;;;;2.00;2.00;;;;;19.79;100.00;101627.53;5048653;28;45643;-76
2022/06/10 02:24:02;;;;;;;;;2.67;2.00;;;;;19.70;100.00;101622.34;5042160;28;45769;-76
2022/06/10 02:26:31;;;;;;;;;2.00;2.00;;;;;19.68;100.00;101612.56;5046400;28;47459;-77
2022/06/10 02:29:00;;;;;;;;;2.00;2.00;;;;;19.62;100.00;101607.97;5032020;28;45636;-76
2022/06/10 02:31:32;;;;;;;;;2.00;2.00;;;;;19.61;100.00;101622.97;5034897;28;45462;-75
2022/06/10 02:33:59;;;;;;;;;1.00;1.00;;;;;19.54;100.00;101623.97;5052752;28;45967;-74
2022/06/10 02:36:40;;;;;;;;;3.67;2.00;;;;;19.53;100.00;101636.19;5050879;28;46599;-78
2022/06/10 02:39:18;;;;;;;;;4.00;4.00;;;;;19.35;100.00;101616.91;5035688;28;45839;-75
2022/06/10 02:41:58;;;;;;;;;1.33;1.33;;;;;19.37;100.00;101639.75;5052370;28;45536;-75
2022/06/10 02:44:35;;;;;;;;;2.00;1.00;;;;;19.30;100.00;101637.13;5052561;28;45688;-77
2022/06/10 02:47:16;;;;;;;;;3.00;2.00;;;;;19.25;100.00;101636.16;5051420;28;45478;-76
2022/06/10 02:49:42;;;;;;;;;2.00;2.00;;;;;19.18;100.00;101642.72;5052414;28;45457;-75
2022/06/10 02:52:11;;;;;;;;;5.00;2.67;;;;;19.14;100.00;101643.44;5023828;28;45924;-76
2022/06/10 02:54:39;;;;;;;;;2.00;2.00;;;;;19.04;100.00;101642.13;5030104;28;46924;-76
2022/06/10 02:57:21;;;;;;;;;4.67;3.00;;;;;19.02;100.00;101640.66;5013784;28;47156;-75
2022/06/10 03:03:00;;;;;;;;;2.00;2.00;;;;;18.91;100.00;101639.59;5038822;28;45873;-77
2022/06/10 03:05:57;;;;;;;;;3.00;2.67;;;;;18.83;100.00;101646.34;5005126;28;46321;-78
2022/06/10 03:08:36;;;;;;;;;2.00;2.00;;;;;18.78;100.00;101643.44;5023182;28;47378;-75
2022/06/10 03:11:37;;;;;;;;;3.67;2.33;;;;;18.64;100.00;101617.00;5021875;28;45659;-76
2022/06/10 03:14:45;;;;;;;;;2.00;2.00;;;;;18.69;100.00;101650.44;5024856;28;45772;-76
2022/06/10 03:17:42;;;;;;;;;3.33;3.00;;;;;18.67;100.00;101658.19;5005001;28;45951;-76
2022/06/10 03:20:23;;;;;;;;;2.67;2.00;;;;;18.63;100.00;101659.75;5026047;28;47319;-75
2022/06/10 03:23:15;;;;;;;;;3.00;2.00;;;;;18.58;100.00;101662.38;5007107;28;45814;-75
2022/06/10 03:25:46;;;;;;;;;5.00;3.67;;;;;18.53;100.00;101672.31;5013320;28;45458;-74
2022/06/10 03:28:15;;;;;;;;;3.67;2.00;;;;;18.49;100.00;101673.88;5026262;28;45712;-74
2022/06/10 03:31:07;;;;;;;;;2.67;2.67;;;;;18.46;100.00;101668.78;5031343;28;45367;-76
2022/06/10 03:33:47;;;;;;;;;3.00;3.00;;;;;18.43;100.00;101666.50;5013704;28;45991;-75
2022/06/10 03:36:16;;;;;;;;;3.33;2.67;;;;;18.39;100.00;101664.44;5024396;28;45334;-76
2022/06/10 03:38:46;;;;;;;;;3.33;1.67;;;;;18.39;100.00;101670.81;5031037;28;45774;-77
2022/06/10 03:41:28;;;;;;;;;3.00;3.00;;;;;18.38;100.00;101668.28;5029961;28;46167;-76
2022/06/10 03:43:56;;;;;;;;;6.33;5.00;;;;;18.36;100.00;101665.75;5031568;28;45851;-76
2022/06/10 03:46:25;;;;;;;;;3.00;3.00;;;;;18.33;100.00;101669.00;5028889;28;45466;-78
2022/06/10 03:48:53;;;;;;;;;7.00;4.00;;;;;18.21;100.00;101648.69;5030036;28;45697;-76
2022/06/10 03:51:19;;;;;;;;;3.00;3.00;;;;;18.23;100.00;101660.41;5031091;28;46298;-77
2022/06/10 03:53:47;;;;;;;;;3.00;3.00;;;;;18.15;100.00;101643.00;5031098;28;45386;-75
2022/06/10 03:56:13;;;;;;;;;4.67;3.00;;;;;18.29;100.00;101676.09;5047750;28;45711;-77
2022/06/10 03:58:39;;;;;;;;;4.33;3.33;;;;;18.26;100.00;101668.25;5045249;28;45929;-76
2022/06/10 04:01:06;;;;;;;;;5.00;5.00;;;;;18.28;100.00;101669.72;5038515;28;45839;-76
2022/06/10 04:03:32;;;;;;;;;3.00;3.00;;;;;18.31;100.00;101671.19;5056788;28;45501;-76
2022/06/10 04:05:57;;;;;;;;;1.67;1.67;;;;;18.32;100.00;101672.84;5023019;28;45744;-76
2022/06/10 04:08:23;;;;;;;;;4.00;2.00;;;;;18.37;100.00;101674.91;5055538;28;45708;-78
2022/06/10 04:10:48;;;;;;;;;2.67;2.67;;;;;18.40;100.00;101678.09;5053519;28;47408;-75
2022/06/10 04:13:17;;;;;;;;;3.33;3.33;;;;;18.53;100.00;101682.56;5053988;28;45760;-76
2022/06/10 04:15:44;;;;;;;;;2.00;2.00;;;;;18.88;100.00;101681.78;5036692;28;45703;-74
2022/06/10 04:18:10;;;;;;;;;4.33;2.67;;;;;19.23;100.00;101672.56;5053339;28;46358;-75
2022/06/10 04:20:38;;;;;;;;;2.00;2.00;;;;;19.71;100.00;101682.47;5055655;28;45787;-75
2022/06/10 04:23:04;;;;;;;;;2.67;2.67;;;;;20.15;100.00;101676.41;5054065;28;45505;-76
2022/06/10 04:25:31;;;;;;;;;4.33;3.33;;;;;20.52;100.00;101645.25;5051453;28;45682;-76
2022/06/10 04:27:57;;;;;;;;;5.33;4.00;;;;;21.22;100.00;101668.06;5054488;28;46681;-74
2022/06/10 04:30:28;;;;;;;;;4.00;4.00;;;;;21.83;100.00;101669.97;5050637;28;46622;-76
2022/06/10 04:32:54;;;;;;;;;8.00;7.33;;;;;22.39;100.00;101664.13;5050973;28;45503;-76
2022/06/10 04:35:20;;;;;;;;;3.00;3.00;;;;;22.83;100.00;101641.53;5051594;28;45794;-75
2022/06/10 04:37:46;;;;;;;;;11.33;7.33;;;;;23.50;100.00;101666.25;5049680;28;46384;-76
2022/06/10 04:40:18;;;;;;;;;9.67;8.00;;;;;24.13;100.00;101669.84;5033536;28;47048;-78
2022/06/10 04:42:45;;;;;;;;;4.00;4.00;;;;;24.67;100.00;101662.00;5031552;28;45768;-74
2022/06/10 04:45:11;;;;;;;;;6.67;4.67;;;;;25.31;100.00;101680.16;5030049;28;45859;-75
2022/06/10 04:47:38;;;;;;;;;6.00;6.00;;;;;25.87;100.00;101662.22;5047315;28;45849;-75
2022/06/10 04:50:04;;;;;;;;;6.00;5.00;;;;;26.34;100.00;101654.31;5050660;28;45564;-76
2022/06/10 04:52:30;;;;;;;;;4.00;4.00;;;;;27.00;100.00;101663.28;5032144;28;45795;-75
2022/06/10 04:54:56;;;;;;;;;3.67;3.67;;;;;27.58;100.00;101667.97;5048039;28;45906;-78
2022/06/10 04:57:21;;;;;;;;;3.33;3.33;;;;;28.15;100.00;101670.03;5049312;28;45830;-75
2022/06/10 04:59:47;;;;;;;;;3.00;3.00;;;;;28.70;97.82;101666.59;5045135;28;46542;-77
2022/06/10 05:02:13;;;;;;;;;5.33;4.33;;;;;29.27;94.35;101665.53;5044986;28;45741;-76
2022/06/10 05:04:38;;;;;;;;;2.75;2.75;;;;;29.76;90.72;101663.91;5052041;28;45773;-76
2022/06/10 05:07:04;;;;;;;;;6.67;4.67;;;;;30.31;87.84;101674.25;5047304;28;45554;-76
2022/06/10 05:09:29;;;;;;;;;4.33;3.33;;;;;30.87;84.79;101668.31;5048391;28;45892;-75
2022/06/10 05:11:55;;;;;;;;;9.33;9.33;;;;;31.45;81.69;101666.41;5050593;28;45774;-75
2022/06/10 05:14:20;;;;;;;;;6.00;6.00;;;;;31.89;79.37;101661.69;5052550;28;45485;-75
2022/06/10 05:16:46;;;;;;;;;6.00;6.00;;;;;32.38;76.90;101664.34;5047071;28;45492;-75
2022/06/10 05:19:11;;;;;;;;;4.67;4.67;;;;;32.87;74.26;101652.75;5051636;28;45523;-76
2022/06/10 05:21:37;;;;;;;;;5.00;3.25;;;;;33.41;72.26;101666.41;5052185;28;45877;-77
2022/06/10 05:24:02;;;;;;;;;3.00;3.00;;;;;33.90;70.12;101665.97;5051203;28;45977;-76
2022/06/10 05:26:29;;;;;;;;;1.50;1.50;;;;;34.46;68.05;101668.50;5052030;28;45783;-75
2022/06/10 05:28:57;;;;;;;;;3.25;1.50;;;;;34.87;64.89;101634.56;5048266;28;46203;-75
2022/06/10 05:31:22;;;;;;;;;3.00;1.75;;;;;35.44;62.64;101667.88;5049558;28;45793;-74
2022/06/10 05:36:32;;;;;;;;;2.00;2.00;;;;;36.29;58.97;101676.66;5042162;28;45637;-75
2022/06/10 05:38:58;;;;;;;;;2.75;2.00;;;;;36.72;57.09;101672.16;5052932;28;45571;-74
2022/06/10 05:44:07;;;;;;;;;2.25;1.00;;;;;37.49;52.36;101660.63;5046820;28;45442;-75
2022/06/10 05:46:33;;;;;;;;;2.00;2.00;;;;;37.86;50.99;101666.84;5031111;28;45799;-75
2022/06/10 05:48:58;;;;;;;;;2.00;2.00;;;;;38.30;50.01;101677.22;5053152;28;45400;-77
2022/06/10 05:51:24;;;;;;;;;1.75;1.75;;;;;38.65;49.11;101679.16;5191504;22;47430;-78
2022/06/10 05:53:50;;;;;;;;;1.75;1.75;;;;;39.02;45.68;101684.34;5044441;28;45433;-77
2022/06/10 05:56:15;;;;;;;;;4.00;2.00;;;;;39.22;44.81;101681.44;5052867;28;45799;-79
2022/06/10 05:58:41;;;;;;;;;4.00;2.00;;;;;39.59;43.90;101683.69;5046651;28;45873;-80
2022/06/10 06:01:07;;;;;;;;;2.00;2.00;;;;;39.99;42.61;101685.06;5037616;28;45800;-79
2022/06/10 06:03:33;;;;;;;;;1.00;1.00;;;;;40.46;40.52;101686.53;5046944;28;45761;-77
2022/06/10 06:05:59;;;;;;;;;1.25;1.25;;;;;40.62;40.38;101692.06;5050644;28;45782;-80
2022/06/10 06:08:24;;;;;;;;;2.25;2.25;;;;;40.89;38.53;101704.28;5063764;28;46591;-82
2022/06/10 06:10:50;;;;;;;;;1.50;1.50;;;;;41.10;38.42;101705.72;5043362;28;45633;-76
2022/06/10 06:13:15;;;;;;;;;3.00;1.00;;;;;41.35;37.17;101700.19;5042000;28;45543;-76
2022/06/10 06:15:41;;;;;;;;;1.50;1.50;;;;;41.45;36.28;101707.25;5040782;28;46776;-75
2022/06/10 06:18:07;;;;;;;;;4.00;1.00;;;;;41.52;35.72;101692.91;5047432;28;48035;-75
2022/06/10 06:20:32;;;;;;;;;1.00;1.00;;;;;41.77;35.38;101707.50;5043049;28;45831;-76
2022/06/10 06:22:58;;;;;;;;;3.00;1.75;;;;;42.13;34.80;101698.19;5047014;28;45633;-81
2022/06/10 06:25:24;;;;;;;;;2.00;2.00;;;;;42.74;33.77;101715.75;5048793;28;45873;-78
2022/06/10 06:27:50;;;;;;;;;1.00;1.00;;;;;43.21;32.27;101710.06;5041723;28;45607;-78
2022/06/10 06:30:30;;;;;;;;;1.00;1.00;;;;;43.44;32.01;101705.94;5047557;28;45464;-77
2022/06/10 06:33:02;;;;;;;;;2.75;2.00;;;;;44.02;30.42;101698.00;5043570;28;45785;-77
2022/06/10 06:35:29;;;;;;;;;1.00;1.00;;;;;44.43;28.95;101701.09;5046427;28;46259;-77
2022/06/10 06:37:55;;;;;;;;;4.00;1.00;;;;;44.70;28.62;101715.03;5046415;28;46852;-77
2022/06/10 06:40:21;;;;;;;;;5.00;5.00;;;;;45.00;28.13;101710.66;5047582;28;45677;-80
2022/06/10 06:42:47;;;;;;;;;2.50;0.75;;;;;45.13;27.83;101708.13;5047906;28;45804;-78
2022/06/10 06:45:14;;;;;;;;;3.67;2.67;;;;;45.23;27.47;101710.09;5030820;28;46032;-81
2022/06/10 06:47:42;;;;;;;;;0.25;0.25;;;;;45.66;26.69;101708.88;5040116;28;45549;-75
2022/06/10 06:50:10;;;;;;;;;1.00;1.00;;;;;45.99;25.70;101698.59;5050513;28;45919;-79
2022/06/10 06:52:36;;;;;;;;;2.25;2.00;;;;;46.47;25.61;101704.59;5058350;28;45398;-84
2022/06/10 06:55:02;;;;;;;;;2.33;1.00;;;;;46.58;25.05;101695.75;5058102;28;45329;-82
2022/06/10 06:57:27;;;;;;;;;0.67;0.67;;;;;46.93;24.95;101693.56;5044801;28;45684;-80
2022/06/10 06:59:54;;;;;;;;;1.00;1.00;;;;;47.50;23.59;101712.91;5031147;28;45502;-78
2022/06/10 07:02:22;;;;;;;;;0.33;0.33;;;;;47.58;23.67;101706.97;5041978;28;45576;-76
2022/06/10 07:04:47;;;;;;;;;0.25;0.25;;;;;47.97;23.37;101699.56;5044190;28;45843;-76
2022/06/10 07:07:13;;;;;;;;;0.67;0.33;;;;;48.45;22.32;101712.69;5048461;28;46116;-76
2022/06/10 07:09:39;;;;;;;;;0.33;0.33;;;;;48.48;21.83;101708.03;5029863;28;45767;-75
2022/06/10 07:12:04;;;;;;;;;0.33;0.33;;;;;48.51;21.84;101707.16;5037114;28;45585;-76
2022/06/10 07:14:30;;;;;;;;;1.00;1.00;;;;;48.68;21.61;101696.38;5038333;28;45775;-76
2022/06/10 07:16:56;;;;;;;;;0.00;0.00;;;;;48.74;21.54;101700.38;5042278;28;46593;-76
2022/06/10 07:19:27;;;;;;;;;1.00;0.33;;;;;48.86;20.89;101695.94;5043689;28;45543;-77
2022/06/10 07:21:52;;;;;;;;;0.67;0.67;;;;;49.08;20.82;101694.13;5038164;28;45876;-77
2022/06/10 07:24:19;;;;;;;;;1.67;1.67;;;;;49.24;20.16;101699.16;5040112;28;45806;-78
2022/06/10 07:26:44;;;;;;;;;0.67;0.67;;;;;49.46;20.46;101710.19;5043581;28;46453;-77
2022/06/10 07:29:10;;;;;;;;;2.33;1.00;;;;;49.58;20.20;101705.75;5037677;28;45485;-78
2022/06/10 07:31:39;;;;;;;;;0.00;0.00;;;;;49.90;19.73;101698.19;5048586;28;45482;-75
2022/06/10 07:34:06;;;;;;;;;1.00;1.00;;;;;50.10;19.15;101712.59;5049440;28;45938;-75
2022/06/10 07:36:31;;;;;;;;;4.00;2.67;;;;;49.89;20.14;101702.38;5033701;28;47169;-78
2022/06/10 07:38:57;;;;;;;;;1.00;1.00;;;;;49.57;19.63;101710.78;5042026;28;45537;-73
2022/06/10 07:44:07;;;;;;;;;0.67;0.67;;;;;49.30;19.89;101703.13;5054315;28;45605;-75
2022/06/10 07:46:32;;;;;;;;;1.33;1.33;;;;;49.04;19.84;101704.22;5051729;28;46674;-75
2022/06/10 07:48:59;;;;;;;;;2.33;2.00;;;;;48.63;20.01;101703.56;5019903;28;45877;-74
2022/06/10 07:51:24;;;;;;;;;0.00;0.00;;;;;47.71;20.77;101700.06;5038315;28;45761;-74
2022/06/10 07:53:50;;;;;;;;;2.67;1.67;;;;;47.10;21.10;101718.59;5052383;28;46032;-74
2022/06/10 07:56:17;;;;;;;;;0.00;0.00;;;;;46.43;22.05;101709.63;5050974;28;48074;-76
2022/06/10 07:58:44;;;;;;;;;0.00;0.00;;;;;46.04;22.09;101700.19;5041957;28;45758;-77
2022/06/10 08:01:10;;;;;;;;;0.00;0.00;;;;;45.75;23.00;101703.38;5053879;28;45842;-76
2022/06/10 08:03:36;;;;;;;;;0.33;0.33;;;;;45.41;23.06;101712.88;5049878;28;45950;-74
2022/06/10 08:06:03;;;;;;;;;0.67;0.67;;;;;45.37;23.18;101693.84;5051037;28;46201;-74
2022/06/10 08:08:28;;;;;;;;;1.00;1.00;;;;;45.02;23.68;101708.22;5036467;28;45938;-74
2022/06/10 08:10:55;;;;;;;;;0.00;0.00;;;;;44.50;23.88;101693.66;5048227;28;45703;-76
2022/06/10 08:13:21;;;;;;;;;1.00;1.00;;;;;44.87;24.13;101698.78;5033229;28;45782;-74
2022/06/10 08:15:48;;;;;;;;;1.00;1.00;;;;;45.69;23.81;101693.50;5046128;28;45612;-75
2022/06/10 08:18:18;;;;;;;;;2.33;2.00;;;;;46.01;23.04;101689.44;5052444;28;46006;-74
2022/06/10 08:23:30;;;;;;;;;1.00;1.00;;;;;45.49;23.01;101692.53;5052215;28;45426;-75
2022/06/10 08:25:57;;;;;;;;;1.00;1.00;;;;;44.92;23.26;101659.88;5053073;28;46159;-75
2022/06/10 08:28:24;;;;;;;;;0.00;0.00;;;;;45.05;23.91;101683.38;5044938;28;45862;-75
2022/06/10 08:30:50;;;;;;;;;1.33;1.33;;;;;45.98;23.43;101684.53;5039875;28;45544;-74
2022/06/10 08:33:15;;;;;;;;;2.33;1.00;;;;;47.01;21.20;101651.53;5051275;28;45796;-73
2022/06/10 08:35:41;;;;;;;;;0.00;0.00;;;;;47.91;20.23;101681.81;5047628;28;45637;-74
2022/06/10 08:38:11;;;;;;;;;1.00;1.00;;;;;48.60;19.81;101679.06;5046253;28;45509;-74
2022/06/10 08:40:44;;;;;;;;;0.33;0.33;;;;;49.35;17.62;101680.53;5039458;28;45949;-74
2022/06/10 08:43:34;;;;;;;;;0.00;0.00;;;;;50.00;17.01;101686.19;5033176;28;46373;-75
2022/06/10 08:46:05;;;;;;;;;0.00;0.00;;;;;50.59;16.85;101685.22;5049854;28;45809;-75
2022/06/10 08:48:59;;;;;;;;;0.00;0.00;;;;;50.57;17.04;101676.91;5043042;28;45487;-74
2022/06/10 08:52:05;;;;;;;;;6.67;6.67;;;;;50.64;17.37;101688.41;5035165;28;45996;-74
2022/06/10 08:54:54;;;;;;;;;2.00;1.33;;;;;51.27;16.54;101680.00;5004225;28;45853;-75
2022/06/10 08:57:36;;;;;;;;;0.67;0.00;;;;;51.79;15.85;101691.50;5030089;28;46645;-75
2022/06/10 09:00:15;;;;;;;;;0.67;0.67;;;;;52.63;15.39;101679.00;5022857;28;45621;-75
2022/06/10 09:03:03;;;;;;;;;0.00;0.00;;;;;52.93;15.71;101686.09;5026391;28;45541;-74
2022/06/10 09:05:34;;;;;;;;;0.00;0.00;;;;;53.25;14.59;101671.34;5029108;28;45692;-76
2022/06/10 09:08:05;;;;;;;;;0.00;0.00;;;;;53.15;14.52;101675.56;5022243;28;46277;-74
2022/06/10 09:10:38;;;;;;;;;0.00;0.00;;;;;52.41;15.29;101670.31;5026860;28;45855;-74
2022/06/10 09:13:22;;;;;;;;;0.00;0.00;;;;;51.96;15.67;101677.50;5011505;28;45566;-75
2022/06/10 09:16:02;;;;;;;;;0.00;0.00;;;;;51.12;15.60;101678.88;5026181;28;45590;-74
2022/06/10 09:18:39;;;;;;;;;0.33;0.33;;;;;51.16;15.38;101670.78;5029896;28;45674;-77
2022/06/10 09:21:11;;;;;;;;;1.00;0.00;;;;;51.54;15.72;101678.63;5019013;28;45841;-75
2022/06/10 09:23:41;;;;;;;;;0.00;0.00;;;;;52.00;15.65;101672.34;5025464;28;45530;-75
2022/06/10 09:26:19;;;;;;;;;0.00;0.00;;;;;52.56;15.05;101667.59;5018212;28;45663;-76
2022/06/10 09:28:44;;;;;;;;;1.67;1.67;;;;;53.15;14.86;101646.25;5028593;28;46092;-76
2022/06/10 09:31:29;;;;;;;;;0.00;0.00;;;;;52.47;15.02;101674.22;5020870;28;45976;-78
2022/06/10 09:34:27;;;;;;;;;0.33;0.33;;;;;51.80;15.39;101672.69;5020799;28;45838;-75
2022/06/10 09:36:55;;;;;;;;;0.33;0.33;;;;;51.53;15.39;101680.72;5029078;28;45781;-75
2022/06/10 09:42:16;;;;;;;;;0.00;0.00;;;;;52.08;15.44;101680.34;5015137;28;45569;-76
2022/06/10 09:44:54;;;;;;;;;0.00;0.00;;;;;52.28;15.74;101693.78;5022439;28;45600;-74
2022/06/10 09:47:28;;;;;;;;;0.00;0.00;;;;;52.89;15.21;101681.72;5020998;28;46008;-75
2022/06/10 09:50:31;;;;;;;;;0.00;0.00;;;;;53.06;15.21;101693.97;5018724;28;46202;-75
2022/06/10 09:53:20;;;;;;;;;0.33;0.33;;;;;53.07;14.95;101684.69;5048740;28;45705;-74
2022/06/10 09:56:20;;;;;;;;;1.67;1.00;;;;;53.41;14.89;101681.97;5040286;28;45671;-75
2022/06/10 09:59:04;;;;;;;;;0.00;0.00;;;;;53.97;14.60;101677.66;5045451;28;45769;-76
2022/06/10 10:01:44;;;;;;;;;0.00;0.00;;;;;54.10;14.08;101680.44;5036694;28;47087;-75
2022/06/10 10:04:18;;;;;;;;;1.00;1.00;;;;;52.61;14.96;101690.38;5047752;28;45850;-77
2022/06/10 10:06:50;;;;;;;;;1.33;0.00;;;;;51.38;15.98;101680.47;5044968;28;45877;-79
2022/06/10 10:09:30;;;;;;;;;4.33;1.00;;;;;51.46;15.79;101692.72;5042550;28;46044;-75
2022/06/10 10:12:14;;;;;;;;;1.33;1.00;;;;;50.85;16.47;101686.84;5040091;28;45781;-75
2022/06/10 10:15:09;;;;;;;;;0.67;0.67;;;;;51.19;16.65;101684.47;5040989;28;45545;-75
2022/06/10 10:17:37;;;;;;;;;1.33;1.00;;;;;51.57;16.24;101689.38;5044259;28;45941;-77
2022/06/10 10:20:16;;;;;;;;;0.00;0.00;;;;;51.43;16.15;101689.91;5037021;28;45974;-77
2022/06/10 10:23:03;;;;;;;;;1.33;0.67;;;;;50.28;16.72;101692.44;5044916;28;47703;-76
2022/06/10 10:25:29;;;;;;;;;0.67;0.67;;;;;49.63;16.82;101694.34;5041087;28;45658;-74
2022/06/10 10:27:56;;;;;;;;;0.00;0.00;;;;;48.86;17.92;101678.47;5042518;28;45486;-77
2022/06/10 10:30:27;;;;;;;;;1.33;1.33;;;;;48.41;18.42;101679.91;5042142;28;45905;-76
2022/06/10 10:33:03;;;;;;;;;0.00;0.00;;;;;48.66;18.07;101679.34;5040177;28;47207;-78
2022/06/10 10:35:37;;;;;;;;;1.00;1.00;;;;;47.43;18.79;101678.19;5045379;28;45871;-78
2022/06/10 10:38:32;;;;;;;;;1.33;0.33;;;;;46.73;20.02;101671.06;5041811;28;45767;-77
2022/06/10 10:41:11;;;;;;;;;4.00;1.67;;;;;45.18;21.27;101661.31;5044340;28;45868;-76
2022/06/10 10:43:37;;;;;;;;;0.33;0.33;;;;;45.35;21.66;101667.38;5041106;28;46702;-76
2022/06/10 10:46:34;;;;;;;;;2.67;2.00;;;;;46.01;20.80;101674.97;5041701;28;45993;-73
2022/06/10 10:49:04;;;;;;;;;0.00;0.00;;;;;45.76;20.84;101667.34;5038986;28;45623;-74
2022/06/10 10:51:41;;;;;;;;;2.00;1.00;;;;;45.34;21.59;101665.75;5040183;28;45571;-75
2022/06/10 10:54:19;;;;;;;;;6.00;6.00;;;;;45.36;21.73;101669.00;5040325;28;46407;-76
2022/06/10 10:56:47;;;;;;;;;1.33;1.33;;;;;44.48;22.36;101659.34;5041766;28;46138;-77
2022/06/10 10:59:28;;;;;;;;;0.00;0.00;;;;;43.42;24.17;101671.69;5042823;28;45543;-76
2022/06/10 11:01:56;;;;;;;;;2.67;2.00;;;;;42.50;25.44;101672.00;5045502;28;45766;-75
2022/06/10 11:04:34;;;;;;;;;2.67;1.00;;;;;41.92;26.93;101672.97;5047594;28;46209;-76
2022/06/10 11:07:18;;;;;;;;;1.00;1.00;;;;;41.10;27.84;101659.66;5047201;28;46213;-76
2022/06/10 11:09:50;;;;;;;;;2.67;2.00;;;;;40.56;29.91;101665.69;5045390;28;45541;-79
2022/06/10 11:12:20;;;;;;;;;1.25;1.00;;;;;39.97;30.85;101671.09;5046646;28;45587;-77
2022/06/10 11:14:58;;;;;;;;;4.00;1.67;;;;;40.41;30.86;101673.31;5048489;28;46289;-79
2022/06/10 11:17:24;;;;;;;;;1.00;1.00;;;;;40.50;30.02;101670.16;5042510;28;45430;-77
2022/06/10 11:20:20;;;;;;;;;1.75;1.00;;;;;40.15;31.46;101685.72;5047178;28;45410;-76
2022/06/10 11:22:46;;;;;;;;;1.00;1.00;;;;;39.12;32.96;101678.00;5054304;28;46991;-77
2022/06/10 11:25:15;;;;;;;;;3.25;1.00;;;;;38.61;35.10;101684.81;5045173;28;45683;-77
2022/06/10 11:27:57;;;;;;;;;1.00;1.00;;;;;38.02;37.34;101681.09;5048667;28;45858;-76
2022/06/10 11:30:41;;;;;;;;;2.67;1.00;;;;;37.34;39.15;101677.47;5064414;28;45806;-78
2022/06/10 11:33:19;;;;;;;;;1.00;1.00;;;;;36.54;41.77;101647.97;5042937;28;45541;-76
2022/06/10 11:36:01;;;;;;;;;1.00;1.00;;;;;36.13;45.01;101676.56;5047779;28;46231;-74
2022/06/10 11:38:30;;;;;;;;;2.25;1.75;;;;;35.91;46.32;101675.09;5043665;28;45916;-77
2022/06/10 11:40:59;;;;;;;;;3.50;1.00;;;;;35.45;49.35;101663.00;5038034;28;45537;-75
2022/06/10 11:43:33;;;;;;;;;0.50;0.50;;;;;35.19;50.86;101667.84;5043385;28;45878;-76
2022/06/10 11:46:12;;;;;;;;;2.00;1.00;;;;;34.77;51.75;101664.34;5047631;28;45897;-78
2022/06/10 11:49:03;;;;;;;;;1.00;1.00;;;;;34.69;53.13;101676.63;5038664;28;45893;-75
2022/06/10 11:51:46;;;;;;;;;0.50;0.50;;;;;34.45;52.93;101666.84;5045325;28;45827;-76
2022/06/10 11:54:29;;;;;;;;;1.50;1.50;;;;;34.15;54.50;101666.94;5044773;28;47451;-76
2022/06/10 12:00:17;;;;;;;;;2.00;1.00;;;;;33.37;58.97;101659.75;5048578;28;45832;-75
2022/06/10 12:02:54;;;;;;;;;3.25;1.00;;;;;33.00;60.22;101660.22;5044953;28;45878;-75
2022/06/10 12:05:46;;;;;;;;;2.00;2.00;;;;;32.74;61.57;101660.31;5048036;28;45465;-75